createdAt,value
2023-05-31T00:02:08.551Z,100109.03
2023-05-31T00:04:37.176Z,100107.28
2023-05-31T00:07:05.453Z,100110.38
2023-05-31T00:09:32.453Z,100098.16
2023-05-31T00:12:00.155Z,100105.75
2023-05-31T00:14:28.532Z,100101.47
2023-05-31T00:17:23.890Z,100113.13
2023-05-31T00:19:44.641Z,100100.72
2023-05-31T00:22:11.702Z,100103.44
2023-05-31T00:24:47.723Z,100106.66
2023-05-31T00:27:14.934Z,100101.69
2023-05-31T00:29:41.979Z,100098.97
2023-05-31T00:32:09.750Z,100097.56
2023-05-31T00:34:36.903Z,100106.09
2023-05-31T00:37:06.258Z,100097.66
2023-05-31T00:39:34.322Z,100103.47
2023-05-31T00:42:01.269Z,100089.03
2023-05-31T00:44:28.335Z,100096.38
2023-05-31T00:46:56.111Z,100096.50
2023-05-31T00:49:23.125Z,100099.06
2023-05-31T00:51:50.422Z,100096.66
2023-05-31T00:54:19.385Z,100105.97
2023-05-31T00:56:46.945Z,100106.63
2023-05-31T00:59:16.206Z,100103.66
2023-05-31T01:01:43.642Z,100101.19
2023-05-31T01:04:16.549Z,100095.75
2023-05-31T01:06:43.722Z,100087.03
2023-05-31T01:09:11.223Z,100093.03
2023-05-31T01:11:59.373Z,100091.53
2023-05-31T01:14:40.510Z,100085.00
2023-05-31T01:17:22.833Z,100075.81
2023-05-31T01:19:55.364Z,100081.34
2023-05-31T01:22:50.468Z,100077.16
2023-05-31T01:25:47.015Z,100082.78
2023-05-31T01:28:17.943Z,100079.56
2023-05-31T01:30:48.078Z,100088.47
2023-05-31T01:33:19.792Z,100096.06
2023-05-31T01:35:46.923Z,100100.66
2023-05-31T01:38:13.990Z,100109.91
2023-05-31T01:40:41.542Z,100106.34
2023-05-31T01:43:12.104Z,100109.09
2023-05-31T01:45:41.791Z,100109.06
2023-05-31T01:48:12.010Z,100109.03
2023-05-31T01:50:42.890Z,100107.41
2023-05-31T01:53:10.223Z,100103.41
2023-05-31T01:55:37.768Z,100107.28
2023-05-31T01:58:07.401Z,100112.91
2023-05-31T02:00:42.294Z,100109.69
2023-05-31T02:03:14.510Z,100110.22
2023-05-31T02:05:56.345Z,100117.75
2023-05-31T02:08:24.858Z,100115.44
2023-05-31T02:10:51.960Z,100111.91
2023-05-31T02:13:21.100Z,100113.53
2023-05-31T02:15:49.468Z,100111.63
2023-05-31T02:18:18.599Z,100110.88
2023-05-31T02:20:46.565Z,100111.13
2023-05-31T02:23:19.204Z,100108.72
2023-05-31T02:25:46.606Z,100110.31
2023-05-31T02:28:14.065Z,100106.59
2023-05-31T02:30:41.531Z,100110.88
2023-05-31T02:33:10.714Z,100104.81
2023-05-31T02:35:38.978Z,100110.06
2023-05-31T02:38:06.168Z,100116.19
2023-05-31T02:40:33.997Z,100106.53
2023-05-31T02:43:01.098Z,100111.16
2023-05-31T02:45:28.342Z,100113.72
2023-05-31T02:47:55.732Z,100105.78
2023-05-31T02:50:43.384Z,100105.00
2023-05-31T02:53:23.986Z,100102.16
2023-05-31T02:55:55.495Z,100109.88
2023-05-31T02:58:25.545Z,100109.31
2023-05-31T03:01:11.039Z,100106.00
2023-05-31T03:03:46.630Z,100106.69
2023-05-31T03:06:24.308Z,100109.19
2023-05-31T03:13:41.557Z,100116.66
2023-05-31T03:16:09.217Z,100118.81
2023-05-31T03:18:38.158Z,100114.78
2023-05-31T03:21:06.464Z,100110.03
2023-05-31T03:23:34.921Z,100119.16
2023-05-31T03:26:02.640Z,100106.25
2023-05-31T03:28:30.017Z,100119.75
2023-05-31T03:30:56.921Z,100123.28
2023-05-31T03:33:24.099Z,100120.88
2023-05-31T03:35:53.755Z,100116.13
2023-05-31T03:38:21.657Z,100126.22
2023-05-31T03:40:50.199Z,100124.25
2023-05-31T03:43:17.417Z,100122.72
2023-05-31T03:45:45.462Z,100119.94
2023-05-31T03:48:12.868Z,100117.94
2023-05-31T03:50:40.618Z,100122.56
2023-05-31T03:53:07.712Z,100124.81
2023-05-31T03:55:35.008Z,100125.13
2023-05-31T03:58:04.319Z,100130.84
2023-05-31T04:00:31.662Z,100124.50
2023-05-31T04:03:04.798Z,100127.00
2023-05-31T04:05:36.024Z,100118.81
2023-05-31T04:08:03.354Z,100129.25
2023-05-31T04:10:33.195Z,100128.41
2023-05-31T04:13:03.446Z,100126.50
2023-05-31T04:15:32.812Z,100134.63
2023-05-31T04:18:04.600Z,100132.69
2023-05-31T04:20:32.552Z,100136.88
2023-05-31T04:22:59.928Z,100143.88
2023-05-31T04:25:27.248Z,100146.31
2023-05-31T04:27:55.028Z,100151.38
2023-05-31T04:30:22.516Z,100154.88
2023-05-31T04:32:50.812Z,100149.97
2023-05-31T04:35:18.971Z,100147.16
2023-05-31T04:37:48.733Z,100140.81
2023-05-31T04:40:18.568Z,100136.53
2023-05-31T04:42:45.751Z,100145.53
2023-05-31T04:45:25.260Z,100142.25
2023-05-31T04:47:56.247Z,100143.38
2023-05-31T04:50:23.602Z,100137.19
2023-05-31T04:52:50.690Z,100133.19
2023-05-31T04:55:18.024Z,100132.94
2023-05-31T04:57:45.103Z,100144.16
2023-05-31T05:00:15.475Z,100141.19
2023-05-31T05:02:59.045Z,100145.56
2023-05-31T05:05:29.894Z,100151.88
2023-05-31T05:08:00.188Z,100144.78
2023-05-31T05:10:27.363Z,100144.53
2023-05-31T05:12:55.421Z,100142.09
2023-05-31T05:15:22.714Z,100147.94
2023-05-31T05:17:50.156Z,100149.28
2023-05-31T05:20:18.929Z,100151.97
2023-05-31T05:22:54.073Z,100154.88
2023-05-31T05:25:31.605Z,100149.00
2023-05-31T05:27:58.895Z,100147.06
2023-05-31T05:30:25.862Z,100155.22
2023-05-31T05:32:52.878Z,100150.28
2023-05-31T05:35:21.487Z,100148.22
2023-05-31T05:37:48.735Z,100151.81
2023-05-31T05:40:17.954Z,100154.47
2023-05-31T05:42:45.104Z,100152.66
2023-05-31T05:45:12.691Z,100149.34
2023-05-31T05:47:42.874Z,100161.47
2023-05-31T05:50:11.017Z,100163.63
2023-05-31T05:52:40.490Z,100159.06
2023-05-31T05:55:09.578Z,100164.63
2023-05-31T05:57:37.459Z,100156.16
2023-05-31T06:00:22.699Z,100163.34
2023-05-31T06:02:55.464Z,100148.94
2023-05-31T06:05:22.995Z,100158.22
2023-05-31T06:07:52.477Z,100154.53
2023-05-31T06:10:19.826Z,100156.88
2023-05-31T06:12:47.174Z,100150.47
2023-05-31T06:15:17.443Z,100159.13
2023-05-31T06:17:45.584Z,100159.03
2023-05-31T06:20:13.173Z,100161.53
2023-05-31T06:22:40.662Z,100156.38
2023-05-31T06:25:09.885Z,100153.50
2023-05-31T06:27:36.911Z,100152.09
2023-05-31T06:30:04.978Z,100157.84
2023-05-31T06:32:37.746Z,100149.44
2023-05-31T06:35:08.523Z,100151.53
2023-05-31T06:37:35.518Z,100151.91
2023-05-31T06:40:07.868Z,100154.28
2023-05-31T06:42:37.561Z,100149.00
2023-05-31T06:45:25.468Z,100148.34
2023-05-31T06:47:53.232Z,100153.47
2023-05-31T06:50:23.524Z,100154.47
2023-05-31T06:53:10.040Z,100143.88
2023-05-31T06:55:42.353Z,100154.47
2023-05-31T06:58:16.267Z,100151.19
2023-05-31T07:00:43.427Z,100145.03
2023-05-31T07:03:10.739Z,100153.53
2023-05-31T07:05:38.209Z,100150.81
2023-05-31T07:08:59.750Z,100152.91
2023-05-31T07:11:40.126Z,100140.81
2023-05-31T07:14:09.887Z,100144.47
2023-05-31T07:16:37.541Z,100143.09
2023-05-31T07:19:05.412Z,100138.44
2023-05-31T07:21:32.416Z,100140.38
2023-05-31T07:24:04.378Z,100140.88
2023-05-31T07:26:31.636Z,100142.00
2023-05-31T07:28:58.596Z,100130.19
2023-05-31T07:32:42.615Z,100132.94
2023-05-31T07:35:11.430Z,100124.16
2023-05-31T07:37:39.171Z,100121.13
2023-05-31T07:40:09.349Z,100119.69
2023-05-31T07:42:36.446Z,100114.13
2023-05-31T07:45:05.594Z,100113.78
2023-05-31T07:47:33.199Z,100103.53
2023-05-31T07:50:00.241Z,100109.31
2023-05-31T07:52:29.413Z,100106.81
2023-05-31T07:54:56.436Z,100104.91
2023-05-31T07:57:23.420Z,100112.84
2023-05-31T07:59:51.865Z,100104.34
2023-05-31T08:02:20.297Z,100107.09
2023-05-31T08:04:47.668Z,100104.94
2023-05-31T08:07:14.660Z,100099.34
2023-05-31T08:09:43.032Z,100097.72
2023-05-31T08:12:10.597Z,100101.03
2023-05-31T08:14:37.730Z,100092.47
2023-05-31T08:17:33.031Z,100101.19
2023-05-31T08:20:04.039Z,100102.44
2023-05-31T08:22:32.035Z,100099.41
2023-05-31T08:25:02.397Z,100093.78
2023-05-31T08:27:30.106Z,100101.69
2023-05-31T08:29:56.978Z,100086.72
2023-05-31T08:32:34.875Z,100089.06
2023-05-31T08:35:14.609Z,100098.72
2023-05-31T08:37:41.801Z,100092.94
2023-05-31T08:40:11.373Z,100085.44
2023-05-31T08:42:48.303Z,100083.63
2023-05-31T08:45:18.851Z,100090.31
2023-05-31T08:47:59.741Z,100081.88
2023-05-31T08:50:29.616Z,100076.03
2023-05-31T08:52:57.736Z,100088.34
2023-05-31T08:55:28.937Z,100066.81
2023-05-31T08:57:58.707Z,100069.91
2023-05-31T09:00:26.633Z,100077.75
2023-05-31T09:02:59.637Z,100084.06
2023-05-31T09:05:28.121Z,100062.84
2023-05-31T09:08:01.285Z,100072.50
2023-05-31T09:10:30.105Z,100068.25
2023-05-31T09:12:58.892Z,100062.94
2023-05-31T09:15:26.479Z,100060.97
2023-05-31T09:17:56.780Z,100064.13
2023-05-31T09:20:32.355Z,100058.88
2023-05-31T09:23:03.838Z,100059.53
2023-05-31T09:25:44.821Z,100053.97
2023-05-31T09:28:15.324Z,100057.97
2023-05-31T09:30:44.439Z,100074.19
2023-05-31T09:33:14.902Z,100061.59
2023-05-31T09:35:57.252Z,100068.88
2023-05-31T09:38:38.750Z,100063.91
2023-05-31T09:41:42.759Z,100045.72
2023-05-31T09:44:20.470Z,100048.16
2023-05-31T09:46:56.952Z,100054.34
2023-05-31T09:49:45.095Z,100046.34
2023-05-31T09:52:14.848Z,100035.38
2023-05-31T09:54:42.955Z,100044.09
2023-05-31T10:00:14.896Z,100049.28
2023-05-31T10:02:43.972Z,100046.56
2023-05-31T10:05:15.232Z,100041.75
2023-05-31T10:07:54.338Z,100047.34
2023-05-31T10:10:26.055Z,100050.38
2023-05-31T10:13:30.687Z,100073.88
2023-05-31T10:16:07.133Z,100065.94
2023-05-31T10:18:44.958Z,100044.19
2023-05-31T10:21:26.039Z,100053.97
2023-05-31T10:24:07.748Z,100050.38
2023-05-31T10:26:52.902Z,100046.84
2023-05-31T10:29:29.549Z,100054.31
2023-05-31T10:32:07.828Z,100039.94
2023-05-31T10:34:38.691Z,100039.41
2023-05-31T10:37:11.883Z,100045.03
2023-05-31T10:39:54.173Z,100046.34
2023-05-31T10:42:28.684Z,100039.63
2023-05-31T10:45:05.900Z,100029.97
2023-05-31T10:47:38.911Z,100021.03
2023-05-31T10:50:08.889Z,100036.16
2023-05-31T10:52:35.851Z,100024.78
2023-05-31T10:55:20.973Z,100033.41
2023-05-31T10:57:54.569Z,100017.69
2023-05-31T11:00:24.586Z,100032.56
2023-05-31T11:02:53.539Z,100024.91
2023-05-31T11:05:22.389Z,100008.78
2023-05-31T11:07:50.940Z,100011.00
2023-05-31T11:10:28.898Z,100006.69
2023-05-31T11:13:04.705Z,100004.75
2023-05-31T11:15:44.834Z,99985.84
2023-05-31T11:18:23.615Z,100004.16
2023-05-31T11:20:50.761Z,100015.06
2023-05-31T11:23:26.779Z,99997.34
2023-05-31T11:26:16.128Z,99992.38
2023-05-31T11:29:00.257Z,99995.88
2023-05-31T11:32:00.871Z,100007.84
2023-05-31T11:34:34.937Z,99991.53
2023-05-31T11:37:05.054Z,99988.25
2023-05-31T11:39:33.151Z,99996.59
2023-05-31T11:42:00.394Z,99989.75
2023-05-31T11:44:39.965Z,99983.66
2023-05-31T11:47:12.497Z,99966.59
2023-05-31T11:49:39.695Z,99966.94
2023-05-31T11:52:07.282Z,99984.16
2023-05-31T11:54:34.991Z,99989.63
2023-05-31T11:57:05.025Z,99982.53
2023-05-31T11:59:33.066Z,99957.56
2023-05-31T12:02:04.540Z,99973.41
2023-05-31T12:04:37.219Z,99965.88
2023-05-31T12:07:06.187Z,99963.59
2023-05-31T12:09:34.695Z,99956.72
2023-05-31T12:12:03.122Z,99955.03
2023-05-31T12:14:30.305Z,99949.41
2023-05-31T12:16:57.313Z,99937.84
2023-05-31T12:19:25.110Z,99959.22
2023-05-31T12:21:53.540Z,99939.16
2023-05-31T12:24:21.604Z,99933.69
2023-05-31T12:26:48.939Z,99935.78
2023-05-31T12:29:16.914Z,99940.56
2023-05-31T12:31:46.215Z,99938.44
2023-05-31T12:34:14.716Z,99937.03
2023-05-31T12:36:44.136Z,99934.28
2023-05-31T12:39:14.455Z,99941.50
2023-05-31T12:41:43.306Z,99946.97
2023-05-31T12:44:10.391Z,99941.44
2023-05-31T12:46:42.714Z,99925.66
2023-05-31T12:49:22.592Z,99923.00
2023-05-31T12:51:49.940Z,99933.63
2023-05-31T12:54:20.188Z,99926.78
2023-05-31T12:56:48.904Z,99919.72
2023-05-31T12:59:16.910Z,99928.44
2023-05-31T13:01:44.321Z,99930.31
2023-05-31T13:04:14.266Z,99921.56
2023-05-31T13:06:42.187Z,99910.13
2023-05-31T13:09:09.843Z,99920.13
2023-05-31T13:11:40.273Z,99916.25
2023-05-31T13:14:10.221Z,99894.16
2023-05-31T13:16:40.737Z,99922.09
2023-05-31T13:19:09.250Z,99921.75
2023-05-31T13:21:37.098Z,99921.44
2023-05-31T13:24:06.802Z,99911.00
2023-05-31T13:26:36.353Z,99904.06
2023-05-31T13:29:05.570Z,99897.25
2023-05-31T13:31:33.150Z,99912.56
2023-05-31T13:34:02.116Z,99891.03
2023-05-31T13:36:36.039Z,99896.59
2023-05-31T13:39:14.196Z,99891.47
2023-05-31T13:41:43.554Z,99890.16
2023-05-31T13:44:12.052Z,99890.88
2023-05-31T13:46:39.346Z,99876.44
2023-05-31T13:49:11.338Z,99885.13
2023-05-31T13:51:38.651Z,99875.34
2023-05-31T13:54:06.036Z,99883.16
2023-05-31T13:56:32.990Z,99879.94
2023-05-31T13:59:00.893Z,99879.66
2023-05-31T14:01:30.162Z,99870.59
2023-05-31T14:03:58.940Z,99862.00
2023-05-31T14:06:26.352Z,99856.78
2023-05-31T14:08:55.025Z,99863.00
2023-05-31T14:11:22.195Z,99859.91
2023-05-31T14:13:50.212Z,99863.44
2023-05-31T14:16:18.386Z,99859.00
2023-05-31T14:18:47.261Z,99844.34
2023-05-31T14:21:15.218Z,99856.22
2023-05-31T14:23:42.317Z,99839.50
2023-05-31T14:26:09.406Z,99849.72
2023-05-31T14:28:37.327Z,99836.75
2023-05-31T14:31:04.394Z,99845.50
2023-05-31T14:33:31.392Z,99838.56
2023-05-31T14:36:01.507Z,99847.50
2023-05-31T14:38:34.893Z,99842.84
2023-05-31T14:41:03.623Z,99838.34
2023-05-31T14:43:31.673Z,99845.75
2023-05-31T14:45:58.936Z,99840.22
2023-05-31T14:48:25.954Z,99845.78
2023-05-31T14:50:53.441Z,99840.56
2023-05-31T14:53:24.290Z,99832.56
2023-05-31T14:55:52.631Z,99819.13
2023-05-31T14:58:21.274Z,99843.72
2023-05-31T15:00:53.822Z,99826.28
2023-05-31T15:03:20.844Z,99839.13
2023-05-31T15:05:47.850Z,99840.44
2023-05-31T15:08:14.928Z,99823.75
2023-05-31T15:10:44.366Z,99830.81
2023-05-31T15:13:11.628Z,99827.50
2023-05-31T15:15:38.655Z,99837.44
2023-05-31T15:18:06.369Z,99837.06
2023-05-31T15:20:33.839Z,99827.13
2023-05-31T15:23:00.849Z,99826.50
2023-05-31T15:25:27.660Z,99823.97
2023-05-31T15:27:56.186Z,99822.22
2023-05-31T15:30:23.401Z,99827.81
2023-05-31T15:32:52.320Z,99818.00
2023-05-31T15:35:19.381Z,99815.53
2023-05-31T15:37:48.044Z,99813.50
2023-05-31T15:40:15.293Z,99826.41
2023-05-31T15:42:42.152Z,99818.72
2023-05-31T15:45:11.329Z,99813.38
2023-05-31T15:47:39.172Z,99804.78
2023-05-31T15:50:08.353Z,99812.38
2023-05-31T15:52:35.584Z,99814.53
2023-05-31T15:55:02.882Z,99818.00
2023-05-31T15:57:29.955Z,99814.53
2023-05-31T15:59:57.238Z,99807.56
2023-05-31T16:02:25.961Z,99801.63
2023-05-31T16:04:53.107Z,99788.16
2023-05-31T16:07:20.181Z,99798.94
2023-05-31T16:09:47.143Z,99795.38
2023-05-31T16:12:14.596Z,99795.38
2023-05-31T16:14:41.515Z,99798.16
2023-05-31T16:17:08.652Z,99780.09
2023-05-31T16:19:36.940Z,99791.06
2023-05-31T16:22:04.539Z,99780.94
2023-05-31T16:24:31.594Z,99770.66
2023-05-31T16:26:58.461Z,99787.69
2023-05-31T16:29:25.450Z,99773.88
2023-05-31T16:31:54.930Z,99772.34
2023-05-31T16:34:24.230Z,99770.34
2023-05-31T16:36:55.700Z,99768.13
2023-05-31T16:39:28.631Z,99773.56
2023-05-31T16:41:55.652Z,99771.72
2023-05-31T16:44:22.606Z,99769.44
2023-05-31T16:46:49.666Z,99783.88
2023-05-31T16:49:17.052Z,99778.63
2023-05-31T16:51:43.973Z,99778.94
2023-05-31T16:54:12.222Z,99778.53
2023-05-31T16:56:39.064Z,99769.34
2023-05-31T16:59:05.931Z,99777.72
2023-05-31T17:01:32.998Z,99785.44
2023-05-31T17:04:00.095Z,99768.22
2023-05-31T17:06:27.119Z,99774.75
2023-05-31T17:08:54.330Z,99774.25
2023-05-31T17:11:22.732Z,99778.47
2023-05-31T17:13:50.265Z,99776.31
2023-05-31T17:16:18.495Z,99781.22
2023-05-31T17:18:45.852Z,99779.97
2023-05-31T17:21:13.281Z,99761.13
2023-05-31T17:23:40.249Z,99763.19
2023-05-31T17:26:07.485Z,99748.75
2023-05-31T17:28:35.748Z,99773.31
2023-05-31T17:31:02.731Z,99773.22
2023-05-31T17:33:29.663Z,99774.84
2023-05-31T17:35:56.556Z,99760.31
2023-05-31T17:38:23.478Z,99755.91
2023-05-31T17:40:50.636Z,99772.22
2023-05-31T17:43:18.342Z,99763.59
2023-05-31T17:45:47.419Z,99765.44
2023-05-31T17:48:14.632Z,99764.63
2023-05-31T17:50:42.119Z,99771.06
2023-05-31T17:53:09.167Z,99769.13
2023-05-31T17:55:36.048Z,99766.56
2023-05-31T17:58:03.010Z,99769.31
2023-05-31T18:00:30.089Z,99766.97
2023-05-31T18:02:58.585Z,99766.53
2023-05-31T18:05:25.528Z,99763.78
2023-05-31T18:07:52.573Z,99774.94
2023-05-31T18:10:19.561Z,99771.34
2023-05-31T18:12:47.380Z,99763.75
2023-05-31T18:15:15.321Z,99771.56
2023-05-31T18:17:42.344Z,99769.47
2023-05-31T18:20:11.740Z,99775.84
2023-05-31T18:22:38.751Z,99771.53
2023-05-31T18:25:06.881Z,99771.56
2023-05-31T18:27:33.735Z,99772.47
2023-05-31T18:30:00.792Z,99766.97
2023-05-31T18:32:28.112Z,99772.59
2023-05-31T18:34:55.210Z,99777.97
2023-05-31T18:37:23.947Z,99779.09
2023-05-31T18:39:50.857Z,99776.94
2023-05-31T18:42:18.108Z,99777.53
2023-05-31T18:44:45.041Z,99775.59
2023-05-31T18:47:12.235Z,99775.91
2023-05-31T18:49:39.366Z,99775.19
2023-05-31T18:52:06.558Z,99774.22
2023-05-31T18:54:34.841Z,99777.13
2023-05-31T18:57:01.781Z,99772.19
2023-05-31T18:59:35.116Z,99774.81
2023-05-31T19:02:03.779Z,99773.75
2023-05-31T19:04:30.689Z,99775.75
2023-05-31T19:06:58.996Z,99780.84
2023-05-31T19:09:25.890Z,99776.50
2023-05-31T19:11:54.756Z,99783.19
2023-05-31T19:14:21.672Z,99787.72
2023-05-31T19:16:50.411Z,99784.44
2023-05-31T19:19:17.391Z,99787.31
2023-05-31T19:21:44.655Z,99788.16
2023-05-31T19:24:11.680Z,99802.84
2023-05-31T19:26:38.734Z,99797.88
2023-05-31T19:29:07.449Z,99804.47
2023-05-31T19:31:34.570Z,99801.25
2023-05-31T19:34:01.565Z,99807.09
2023-05-31T19:36:28.738Z,99813.31
2023-05-31T19:38:58.016Z,99813.13
2023-05-31T19:41:28.068Z,99813.41
2023-05-31T19:43:54.926Z,99825.84
2023-05-31T19:46:24.305Z,99814.34
2023-05-31T19:48:51.263Z,99822.66
2023-05-31T19:51:18.561Z,99821.94
2023-05-31T19:53:45.524Z,99826.91
2023-05-31T19:56:12.467Z,99825.63
2023-05-31T19:58:40.707Z,99829.28
2023-05-31T20:01:07.813Z,99826.59
2023-05-31T20:03:36.357Z,99830.25
2023-05-31T20:06:03.951Z,99833.34
2023-05-31T20:08:31.108Z,99834.53
2023-05-31T20:10:57.947Z,99827.69
2023-05-31T20:13:24.833Z,99832.66
2023-05-31T20:15:51.706Z,99825.78
2023-05-31T20:18:18.605Z,99835.16
2023-05-31T20:20:46.929Z,99836.84
2023-05-31T20:23:13.788Z,99838.47
2023-05-31T20:25:41.490Z,99834.66
2023-05-31T20:28:08.569Z,99827.28
2023-05-31T20:30:37.715Z,99831.16
2023-05-31T20:33:04.890Z,99826.78
2023-05-31T20:35:31.846Z,99835.88
2023-05-31T20:38:00.020Z,99836.44
2023-05-31T20:40:27.574Z,99839.47
2023-05-31T20:42:54.658Z,99840.31
2023-05-31T20:45:21.869Z,99843.63
2023-05-31T20:47:49.395Z,99839.50
2023-05-31T20:50:16.454Z,99841.69
2023-05-31T20:52:43.388Z,99839.25
2023-05-31T20:55:12.402Z,99843.91
2023-05-31T20:57:40.533Z,99842.75
2023-05-31T21:00:09.632Z,99845.19
2023-05-31T21:02:36.718Z,99840.44
2023-05-31T21:05:04.169Z,99847.41
2023-05-31T21:07:31.044Z,99845.06
2023-05-31T21:09:58.317Z,99848.06
2023-05-31T21:12:26.651Z,99848.38
2023-05-31T21:14:53.581Z,99850.50
2023-05-31T21:17:20.773Z,99839.50
2023-05-31T21:19:47.688Z,99842.97
2023-05-31T21:22:14.606Z,99843.25
2023-05-31T21:24:41.416Z,99849.22
2023-05-31T21:27:08.408Z,99846.97
2023-05-31T21:29:36.630Z,99848.19
2023-05-31T21:32:03.992Z,99854.47
2023-05-31T21:34:31.030Z,99849.00
2023-05-31T21:36:58.206Z,99845.53
2023-05-31T21:39:25.707Z,99852.50
2023-05-31T21:41:52.804Z,99840.63
2023-05-31T21:44:20.408Z,99850.09
2023-05-31T21:46:48.747Z,99846.69
2023-05-31T21:49:15.705Z,99854.25
2023-05-31T21:51:42.692Z,99854.78
2023-05-31T21:54:09.704Z,99853.47
2023-05-31T21:56:36.692Z,99853.84
2023-05-31T21:59:03.566Z,99848.44
2023-05-31T22:01:30.503Z,99857.22
2023-05-31T22:03:58.855Z,99853.59
2023-05-31T22:06:26.215Z,99863.69
2023-05-31T22:08:53.107Z,99852.75
2023-05-31T22:11:20.998Z,99858.16
2023-05-31T22:13:48.514Z,99855.19
2023-05-31T22:16:15.420Z,99857.97
2023-05-31T22:18:42.278Z,99858.34
2023-05-31T22:21:10.599Z,99858.81
2023-05-31T22:23:37.451Z,99865.56
2023-05-31T22:26:04.411Z,99861.06
2023-05-31T22:28:31.977Z,99870.50
2023-05-31T22:30:59.062Z,99868.66
2023-05-31T22:33:26.361Z,99872.31
2023-05-31T22:35:53.339Z,99876.22
2023-05-31T22:38:21.560Z,99874.44
2023-05-31T22:40:48.435Z,99871.75
2023-05-31T22:43:15.625Z,99877.78
2023-05-31T22:45:42.471Z,99874.97
2023-05-31T22:48:09.582Z,99878.88
2023-05-31T22:50:36.678Z,99879.34
2023-05-31T22:53:03.730Z,99874.78
2023-05-31T22:55:31.973Z,99883.06
2023-05-31T22:57:58.862Z,99882.31
2023-05-31T23:00:26.033Z,99885.19
2023-05-31T23:02:52.956Z,99887.56
2023-05-31T23:05:19.931Z,99881.88
2023-05-31T23:07:46.856Z,99886.69
2023-05-31T23:10:14.528Z,99886.03
2023-05-31T23:12:43.725Z,99882.31
2023-05-31T23:15:12.136Z,99889.22
2023-05-31T23:17:42.465Z,99885.88
2023-05-31T23:20:14.203Z,99884.22
2023-05-31T23:22:43.715Z,99878.31
2023-05-31T23:25:12.801Z,99879.13
2023-05-31T23:27:42.703Z,99885.00
2023-05-31T23:30:13.357Z,99878.00
2023-05-31T23:32:41.049Z,99885.75
2023-05-31T23:35:09.272Z,99887.66
2023-05-31T23:37:36.225Z,99889.47
2023-05-31T23:40:03.980Z,99880.63
2023-05-31T23:42:30.860Z,99890.34
2023-05-31T23:44:59.106Z,99883.47
2023-05-31T23:47:26.378Z,99889.72
2023-05-31T23:49:54.476Z,99892.94
2023-05-31T23:52:23.006Z,99893.91
2023-05-31T23:54:50.597Z,99890.44
2023-05-31T23:57:17.452Z,99898.88
2023-05-31T23:59:44.310Z,99900.50
